Time;durP1;ratioP1;P1;durP2;ratioP2;P2;SDS_P1;SDS_P2;PMS_P1;PMS_P2;Temp;Humidity;BMP_temperature;BMP_pressure;BME280_temperature;BME280_humidity;BME280_pressure;Samples;Min_cycle;Max_cycle;Signal;HPM_P1;HPM_P2
2022/03/11 00:01:57;;;;;;;12.40;9.27;;;;;;;5.43;49.54;152756.25;5033284;28;20446;-75
2022/03/11 00:04:32;;;;;;;11.57;8.37;;;;;;;5.46;50.01;152764.00;5050297;28;20524;-75
2022/03/11 00:07:09;;;;;;;8.50;7.40;;;;;;;5.43;50.04;152756.25;5051137;28;20466;-74
2022/03/11 00:09:45;;;;;;;13.63;8.50;;;;;;;5.42;50.78;152753.69;5029125;28;20447;-75
2022/03/11 00:12:24;;;;;;;11.53;8.60;;;;;;;5.37;51.03;152742.09;5032505;28;20455;-74
2022/03/11 00:15:00;;;;;;;10.73;8.73;;;;;;;5.26;51.36;152713.75;5064172;28;20435;-75
2022/03/11 00:17:36;;;;;;;13.63;8.80;;;;;;;5.27;51.63;152715.03;5050480;28;20446;-74
2022/03/11 00:20:12;;;;;;;11.17;8.50;;;;;;;5.23;52.01;152706.00;5047465;28;20430;-74
2022/03/11 00:22:47;;;;;;;12.07;8.57;;;;;;;5.24;51.85;152707.28;5046675;28;20454;-74
2022/03/11 00:25:24;;;;;;;12.43;9.57;;;;;;;5.15;52.38;152684.06;5033736;28;20467;-75
2022/03/11 00:28:00;;;;;;;14.07;10.10;;;;;;;5.18;52.52;152691.81;5059944;28;20491;-75
2022/03/11 00:30:36;;;;;;;13.00;9.23;;;;;;;5.05;53.15;152658.31;5049486;28;20450;-75
2022/03/11 00:33:11;;;;;;;14.80;10.30;;;;;;;5.05;53.97;152658.31;5050607;28;20446;-75
2022/03/11 00:35:49;;;;;;;14.77;10.97;;;;;;;4.92;53.85;152627.34;5049968;28;20439;-75
2022/03/11 00:38:25;;;;;;;13.40;8.97;;;;;;;4.83;54.47;152602.88;5050760;28;20789;-75
2022/03/11 00:41:03;;;;;;;15.30;11.20;;;;;;;4.87;54.84;152613.22;5049855;28;20541;-74
2022/03/11 00:43:38;;;;;;;15.83;10.90;;;;;;;4.86;54.86;152610.63;5049741;28;20510;-75
2022/03/11 00:46:16;;;;;;;13.13;10.53;;;;;;;4.76;55.23;152586.16;5061196;28;20513;-75
2022/03/11 00:48:52;;;;;;;13.13;9.60;;;;;;;4.72;55.89;152575.81;5048925;28;20734;-75
2022/03/11 00:51:28;;;;;;;16.13;11.57;;;;;;;4.78;55.38;152590.00;5033280;28;20949;-74
2022/03/11 00:54:03;;;;;;;14.77;10.60;;;;;;;4.68;56.50;152565.53;5047738;28;20447;-74
2022/03/11 00:56:40;;;;;;;13.10;10.20;;;;;;;4.65;56.00;152556.50;5043771;28;20491;-74
2022/03/11 00:59:16;;;;;;;14.67;10.30;;;;;;;4.59;56.73;152541.03;5048037;28;20945;-73
2022/03/11 01:01:52;;;;;;;16.93;11.47;;;;;;;4.57;56.55;152537.19;5044488;28;20447;-76
2022/03/11 01:04:27;;;;;;;15.33;10.43;;;;;;;4.57;56.52;152535.88;5031984;28;20541;-76
2022/03/11 01:07:03;;;;;;;15.60;10.70;;;;;;;4.56;57.10;152534.59;5034309;28;20473;-76
2022/03/11 01:09:39;;;;;;;16.60;11.50;;;;;;;4.50;56.99;152519.09;5027483;28;20455;-76
2022/03/11 01:12:16;;;;;;;20.20;11.63;;;;;;;4.57;57.27;152535.88;5049723;28;20452;-76
2022/03/11 01:14:51;;;;;;;15.13;11.10;;;;;;;4.51;57.36;152521.69;5034875;28;20451;-76
2022/03/11 01:17:27;;;;;;;13.53;10.93;;;;;;;4.33;58.19;152475.34;5042995;28;20447;-76
2022/03/11 01:20:03;;;;;;;15.47;11.90;;;;;;;4.36;58.55;152481.78;5032727;28;20489;-76
2022/03/11 01:22:39;;;;;;;15.10;10.87;;;;;;;4.30;58.25;152468.91;5044683;28;20443;-76
2022/03/11 01:25:15;;;;;;;16.17;11.57;;;;;;;4.33;58.26;152475.34;5044950;28;20442;-75
2022/03/11 01:27:51;;;;;;;18.20;12.33;;;;;;;4.34;58.77;152477.94;5030477;28;20447;-76
2022/03/11 01:30:27;;;;;;;17.20;13.47;;;;;;;4.21;59.01;152445.69;5044829;28;20443;-76
2022/03/11 01:33:02;;;;;;;15.63;11.60;;;;;;;4.12;59.67;152421.25;5049019;28;20557;-76
2022/03/11 01:35:38;;;;;;;16.40;11.80;;;;;;;4.13;59.00;152425.09;5047972;28;20443;-76
2022/03/11 01:38:14;;;;;;;17.17;13.50;;;;;;;4.07;59.46;152408.38;5045427;28;20446;-76
2022/03/11 01:40:49;;;;;;;19.40;12.23;;;;;;;4.01;59.06;152392.91;5032309;28;20541;-76
2022/03/11 01:43:27;;;;;;;20.63;13.67;;;;;;;3.94;59.51;152376.19;5041554;28;20482;-76
2022/03/11 01:46:03;;;;;;;18.90;13.10;;;;;;;3.94;59.76;152374.88;5044519;28;20467;-76
2022/03/11 01:48:38;;;;;;;20.27;12.60;;;;;;;3.94;59.69;152374.88;5046063;28;20443;-76
2022/03/11 01:51:14;;;;;;;17.10;11.77;;;;;;;3.87;59.51;152358.13;5062455;28;20447;-76
2022/03/11 01:53:50;;;;;;;18.27;13.47;;;;;;;3.79;60.05;152337.53;5046697;28;21051;-76
2022/03/11 01:56:26;;;;;;;20.97;13.30;;;;;;;3.87;59.68;152356.81;5047580;28;20957;-76
2022/03/11 01:59:04;;;;;;;19.00;13.50;;;;;;;3.74;60.20;152324.66;5049749;28;20445;-76
2022/03/11 02:01:40;;;;;;;18.60;11.30;;;;;;;3.79;59.59;152337.53;5064795;28;20545;-76
2022/03/11 02:04:15;;;;;;;17.20;12.63;;;;;;;3.71;59.93;152316.91;5048858;28;20454;-76
2022/03/11 02:06:50;;;;;;;20.70;13.33;;;;;;;3.60;60.27;152288.66;5048304;28;20466;-76
2022/03/11 02:09:26;;;;;;;18.07;12.67;;;;;;;3.49;60.79;152260.31;5044207;28;20447;-76
2022/03/11 02:12:02;;;;;;;16.83;12.53;;;;;;;3.57;60.73;152280.91;5046146;28;20458;-76
2022/03/11 02:14:39;;;;;;;17.87;13.27;;;;;;;3.45;61.18;152251.28;5033136;28;20450;-76
2022/03/11 02:17:14;;;;;;;16.70;12.60;;;;;;;3.44;61.14;152248.69;5047318;28;20458;-76
2022/03/11 02:19:50;;;;;;;19.63;14.53;;;;;;;3.41;61.39;152241.00;5046919;28;20841;-76
2022/03/11 02:22:26;;;;;;;16.97;12.83;;;;;;;3.44;61.51;152247.44;5046080;28;20455;-76
2022/03/11 02:25:06;;;;;;;17.17;13.57;;;;;;;3.37;61.78;152229.41;5044682;28;20444;-76
2022/03/11 02:27:42;;;;;;;19.97;14.23;;;;;;;3.27;61.71;152204.97;5044261;28;20467;-76
2022/03/11 02:30:20;;;;;;;17.30;12.97;;;;;;;3.24;62.48;152197.22;5046903;28;20442;-76
2022/03/11 02:32:55;;;;;;;19.23;15.33;;;;;;;3.21;62.61;152189.50;5043900;28;20454;-76
2022/03/11 02:35:31;;;;;;;19.60;14.37;;;;;;;3.18;62.57;152181.78;5044743;28;20454;-76
2022/03/11 02:38:06;;;;;;;20.00;14.93;;;;;;;3.14;62.99;152171.50;5046461;28;20436;-76
2022/03/11 02:40:43;;;;;;;20.77;12.80;;;;;;;3.13;62.91;152168.91;5047585;28;20453;-76
2022/03/11 02:43:28;;;;;;;21.77;14.27;;;;;;;3.14;63.09;152171.50;5048473;28;20485;-76
2022/03/11 02:46:04;;;;;;;20.17;14.50;;;;;;;3.13;62.93;152168.91;5045139;28;20810;-75
2022/03/11 02:48:40;;;;;;;18.67;14.70;;;;;;;3.14;63.12;152171.50;5029859;28;20450;-76
2022/03/11 02:51:15;;;;;;;21.10;12.60;;;;;;;3.07;62.98;152153.50;5058758;28;20779;-75
2022/03/11 02:53:51;;;;;;;21.70;14.90;;;;;;;2.81;64.02;152086.56;5042181;28;20498;-75
2022/03/11 02:56:32;;;;;;;21.43;15.27;;;;;;;2.84;64.16;152094.28;5043392;28;20453;-75
2022/03/11 02:59:07;;;;;;;18.03;12.87;;;;;;;2.83;63.83;152091.75;5044387;28;20473;-75
2022/03/11 03:01:43;;;;;;;18.27;13.87;;;;;;;2.80;64.14;152084.03;5063678;28;20441;-75
2022/03/11 03:04:18;;;;;;;20.27;14.17;;;;;;;2.83;63.99;152091.75;5048662;28;20539;-75
2022/03/11 03:06:54;;;;;;;23.10;15.53;;;;;;;2.75;64.06;152072.47;5033954;28;20457;-75
2022/03/11 03:09:30;;;;;;;22.17;16.17;;;;;;;2.71;63.96;152062.16;5024173;28;20456;-75
2022/03/11 03:12:08;;;;;;;16.10;13.07;;;;;;;2.69;64.03;152055.72;5027404;28;20449;-75
2022/03/11 03:14:44;;;;;;;19.80;12.60;;;;;;;2.66;64.08;152048.00;5060801;28;22316;-75
2022/03/11 03:17:21;;;;;;;20.00;14.27;;;;;;;2.57;64.17;152024.88;5031920;28;20457;-75
2022/03/11 03:19:56;;;;;;;21.60;14.37;;;;;;;2.45;64.93;151995.28;5031562;28;20952;-75
2022/03/11 03:22:32;;;;;;;20.93;14.53;;;;;;;2.43;64.44;151991.44;5047210;28;20545;-75
2022/03/11 03:25:09;;;;;;;23.30;14.90;;;;;;;2.40;64.52;151983.72;5061242;28;20438;-75
2022/03/11 03:27:46;;;;;;;21.63;14.33;;;;;;;2.36;64.93;151973.41;5028167;28;20517;-75
2022/03/11 03:30:21;;;;;;;22.00;13.90;;;;;;;2.38;64.27;151978.53;5030270;28;20451;-75
2022/03/11 03:32:57;;;;;;;18.70;13.13;;;;;;;2.38;64.52;151977.28;5044247;28;20447;-75
2022/03/11 03:35:33;;;;;;;19.70;13.97;;;;;;;2.37;64.53;151976.00;5029205;28;20656;-75
2022/03/11 03:38:09;;;;;;;19.77;13.40;;;;;;;2.30;64.54;151957.94;5059876;28;20456;-75
2022/03/11 03:40:45;;;;;;;17.53;12.80;;;;;;;2.25;64.38;151945.09;5029949;28;20475;-75
2022/03/11 03:43:22;;;;;;;19.47;12.63;;;;;;;2.20;64.12;151930.94;5031045;28;20495;-75
2022/03/11 03:45:58;;;;;;;23.77;14.70;;;;;;;2.09;64.92;151903.94;5045042;28;20449;-75
2022/03/11 03:48:34;;;;;;;22.20;13.90;;;;;;;2.10;64.27;151906.53;5031237;28;21213;-75
2022/03/11 03:51:09;;;;;;;25.40;15.40;;;;;;;2.01;64.49;151883.44;5046412;28;20836;-75
2022/03/11 03:53:45;;;;;;;19.23;14.00;;;;;;;1.96;64.56;151869.28;5032233;28;20544;-75
2022/03/11 03:56:20;;;;;;;21.73;14.67;;;;;;;1.93;64.41;151862.88;5063704;28;20451;-75
2022/03/11 03:58:57;;;;;;;21.07;14.73;;;;;;;1.88;64.69;151848.72;5051027;28;20449;-75
2022/03/11 04:01:33;;;;;;;21.67;13.47;;;;;;;1.82;64.66;151835.88;5064129;28;20780;-75
2022/03/11 04:04:10;;;;;;;22.27;12.80;;;;;;;1.77;65.05;151821.72;5033241;28;20448;-75
2022/03/11 04:06:45;;;;;;;23.70;14.37;;;;;;;1.70;65.17;151803.69;5046915;28;20467;-75
2022/03/11 04:09:21;;;;;;;18.13;12.37;;;;;;;1.73;64.78;151812.72;5048269;28;20466;-75
2022/03/11 04:12:00;;;;;;;19.40;12.70;;;;;;;1.74;64.48;151814.00;5050045;28;20444;-75
2022/03/11 04:14:37;;;;;;;25.00;14.50;;;;;;;1.71;64.87;151806.28;5046588;28;20482;-75
2022/03/11 04:17:12;;;;;;;17.70;12.67;;;;;;;1.63;64.98;151787.03;5061203;28;20444;-75
2022/03/11 04:19:48;;;;;;;19.23;12.53;;;;;;;1.56;64.99;151767.75;5050582;28;20447;-74
2022/03/11 04:22:24;;;;;;;16.00;11.70;;;;;;;1.54;64.69;151763.88;5047189;28;20830;-75
2022/03/11 04:24:59;;;;;;;16.17;11.80;;;;;;;1.60;63.93;151778.00;5045942;28;20456;-75
2022/03/11 04:27:35;;;;;;;19.03;12.23;;;;;;;1.43;64.12;151734.34;5030216;28;20485;-75
2022/03/11 04:30:12;;;;;;;19.93;11.70;;;;;;;1.44;64.37;151738.19;5046524;28;20453;-75
2022/03/11 04:32:48;;;;;;;17.33;11.53;;;;;;;1.42;64.18;151731.75;5048481;28;20444;-75
2022/03/11 04:35:23;;;;;;;21.40;13.50;;;;;;;1.33;63.67;151709.91;5049462;28;20537;-75
2022/03/11 04:37:59;;;;;;;17.20;11.40;;;;;;;1.30;64.13;151700.94;5048574;28;20453;-75
2022/03/11 04:40:34;;;;;;;22.80;13.00;;;;;;;1.31;63.29;151703.50;5048987;28;20443;-75
2022/03/11 04:43:10;;;;;;;16.63;11.20;;;;;;;1.32;63.63;151706.06;5046419;28;20567;-75
2022/03/11 04:45:50;;;;;;;18.47;11.50;;;;;;;1.27;63.26;151693.22;5050056;28;20456;-75
2022/03/11 04:48:26;;;;;;;16.33;10.73;;;;;;;1.28;62.70;151695.78;5044594;28;20500;-74
2022/03/11 04:51:03;;;;;;;17.20;10.87;;;;;;;1.26;62.08;151690.66;5047970;28;20458;-75
2022/03/11 04:53:39;;;;;;;18.10;12.47;;;;;;;1.21;62.53;151679.09;5061831;28;20446;-75
2022/03/11 04:56:14;;;;;;;18.70;12.77;;;;;;;1.16;63.18;151667.56;5050695;28;20457;-75
2022/03/11 04:58:50;;;;;;;21.33;14.40;;;;;;;1.17;62.50;151670.09;5048769;28;20439;-75
2022/03/11 05:01:27;;;;;;;25.60;16.40;;;;;;;1.15;62.28;151664.97;5032640;28;20462;-75
2022/03/11 05:04:03;;;;;;;15.83;10.33;;;;;;;1.19;61.84;151675.22;5045105;28;20452;-76
2022/03/11 05:06:38;;;;;;;18.50;11.27;;;;;;;1.12;62.52;151657.25;5032416;28;20503;-75
2022/03/11 05:09:14;;;;;;;19.23;13.87;;;;;;;1.05;61.91;151638.00;5031472;28;20457;-75
2022/03/11 05:11:50;;;;;;;23.33;12.47;;;;;;;1.00;61.47;151626.44;5049266;28;20435;-75
2022/03/11 05:14:26;;;;;;;19.13;11.20;;;;;;;0.96;61.37;151616.16;5034290;28;20450;-76
2022/03/11 05:17:03;;;;;;;14.70;10.63;;;;;;;0.91;61.57;151603.31;5063133;28;20469;-76
2022/03/11 05:19:40;;;;;;;15.70;10.90;;;;;;;1.00;60.96;151626.44;5045874;28;20798;-75
2022/03/11 05:22:17;;;;;;;17.10;9.70;;;;;;;0.87;60.87;151593.06;5032370;28;20457;-75
2022/03/11 05:24:53;;;;;;;13.87;9.90;;;;;;;1.02;60.82;151630.28;5046441;28;20450;-75
2022/03/11 05:27:29;;;;;;;16.80;10.23;;;;;;;0.86;61.55;151589.19;5059915;28;20480;-75
2022/03/11 05:30:06;;;;;;;15.50;10.20;;;;;;;0.81;61.09;151576.34;5030825;28;20478;-75
2022/03/11 05:32:47;;;;;;;14.43;9.50;;;;;;;0.70;60.76;151548.09;5047006;28;20805;-75
2022/03/11 05:35:23;;;;;;;18.60;9.30;;;;;;;0.75;60.81;151562.22;5063317;28;20451;-75
2022/03/11 05:37:59;;;;;;;16.77;9.80;;;;;;;0.72;60.16;151554.50;5062818;28;20536;-75
2022/03/11 05:40:34;;;;;;;13.77;9.73;;;;;;;0.65;59.67;151535.25;5057713;28;20533;-75
2022/03/11 05:43:11;;;;;;;19.03;10.17;;;;;;;0.65;59.71;151535.25;5044939;28;20493;-75
2022/03/11 05:45:46;;;;;;;17.17;9.33;;;;;;;0.75;59.36;151562.22;5046857;28;20458;-75
2022/03/11 05:48:23;;;;;;;13.80;9.23;;;;;;;0.67;59.15;151541.66;5048244;28;20481;-75
2022/03/11 05:50:59;;;;;;;14.07;9.37;;;;;;;0.72;59.11;151554.50;5047123;28;20450;-75
2022/03/11 05:53:35;;;;;;;12.30;9.07;;;;;;;0.67;58.69;151541.66;5033439;28;20455;-75
2022/03/11 05:56:10;;;;;;;12.70;8.63;;;;;;;0.68;59.01;151544.25;5026668;28;20450;-75
2022/03/11 05:58:46;;;;;;;12.80;7.90;;;;;;;0.61;58.82;151527.53;5031602;28;20532;-75
2022/03/11 06:01:22;;;;;;;15.80;8.40;;;;;;;0.54;59.03;151508.28;5043279;28;20508;-75
2022/03/11 06:04:01;;;;;;;12.47;7.53;;;;;;;0.66;58.30;151539.13;5046234;28;20506;-75
2022/03/11 06:06:38;;;;;;;12.17;8.27;;;;;;;0.69;58.42;151546.78;5044833;28;20435;-75
2022/03/11 06:09:14;;;;;;;11.67;8.30;;;;;;;0.70;58.61;151549.38;5042161;28;20443;-75
2022/03/11 06:11:49;;;;;;;12.97;8.10;;;;;;;0.61;58.27;151527.53;5029104;28;20435;-75
2022/03/11 06:14:25;;;;;;;14.27;7.77;;;;;;;0.66;58.09;151539.13;5031893;28;20457;-75
2022/03/11 06:17:01;;;;;;;15.03;7.80;;;;;;;0.70;57.11;151549.38;5034860;28;20436;-75
2022/03/11 06:19:38;;;;;;;8.60;6.20;;;;;;;0.69;57.42;151546.78;5043161;28;20471;-75
2022/03/11 06:22:13;;;;;;;12.73;7.87;;;;;;;0.85;56.38;151587.88;5052784;28;20451;-75
2022/03/11 06:24:49;;;;;;;8.93;6.17;;;;;;;0.99;55.69;151622.56;5042696;28;20439;-75
2022/03/11 06:27:25;;;;;;;12.67;7.37;;;;;;;0.93;55.93;151608.44;5045613;28;20553;-75
2022/03/11 06:30:01;;;;;;;9.77;7.10;;;;;;;0.97;55.25;151618.72;5057556;28;20945;-75
2022/03/11 06:32:40;;;;;;;11.57;7.20;;;;;;;1.14;55.25;151662.38;5031054;28;20440;-75
2022/03/11 06:35:18;;;;;;;11.17;6.97;;;;;;;1.19;54.59;151675.22;5045807;28;20455;-75
2022/03/11 06:37:54;;;;;;;10.00;6.80;;;;;;;1.34;53.37;151711.19;5032777;28;20465;-75
2022/03/11 06:40:29;;;;;;;8.60;5.50;;;;;;;1.51;53.54;151754.91;5040667;28;20507;-74
2022/03/11 06:43:05;;;;;;;9.77;6.50;;;;;;;1.56;52.87;151767.75;5044151;28;20947;-75
2022/03/11 06:45:41;;;;;;;9.70;6.50;;;;;;;1.77;52.40;151821.72;5031075;28;20499;-75
2022/03/11 06:48:18;;;;;;;8.70;5.60;;;;;;;1.93;51.71;151861.56;5038504;28;20555;-76
2022/03/11 06:50:55;;;;;;;13.03;6.90;;;;;;;2.13;51.57;151914.25;5057993;28;20448;-74
2022/03/11 06:53:31;;;;;;;11.13;7.60;;;;;;;2.16;51.67;151921.97;5059185;28;20464;-74
2022/03/11 06:56:06;;;;;;;10.20;6.27;;;;;;;2.40;50.00;151983.72;5030314;28;20530;-74
2022/03/11 06:58:42;;;;;;;10.13;6.83;;;;;;;2.41;50.76;151986.25;5046431;28;20448;-74
2022/03/11 07:01:18;;;;;;;12.03;6.63;;;;;;;2.22;50.12;151937.44;5046238;28;20450;-75
2022/03/11 07:03:54;;;;;;;7.53;6.00;;;;;;;2.37;50.56;151976.00;5059122;28;20459;-75
2022/03/11 07:06:31;;;;;;;9.17;7.00;;;;;;;2.66;50.07;152048.00;5045824;28;20465;-75
2022/03/11 07:09:07;;;;;;;8.40;6.57;;;;;;;2.79;49.15;152081.44;5042481;28;20484;-75
2022/03/11 07:11:42;;;;;;;12.60;6.30;;;;;;;2.85;49.31;152096.88;5047434;28;20533;-75
2022/03/11 07:14:18;;;;;;;8.77;6.90;;;;;;;3.07;49.08;152153.50;5046962;28;20512;-75
2022/03/11 07:16:56;;;;;;;11.67;7.30;;;;;;;3.28;48.86;152207.56;5045298;28;20790;-75
2022/03/11 07:19:32;;;;;;;11.50;7.93;;;;;;;3.53;48.38;152271.88;5046201;28;20891;-75
2022/03/11 07:22:09;;;;;;;9.57;6.70;;;;;;;3.78;47.97;152333.69;5044172;28;20442;-75
2022/03/11 07:24:45;;;;;;;9.73;6.23;;;;;;;3.77;47.01;152331.09;5060679;28;20441;-76
2022/03/11 07:27:21;;;;;;;10.40;6.67;;;;;;;3.76;46.88;152328.53;5045094;28;20557;-75
2022/03/11 07:29:57;;;;;;;10.80;7.13;;;;;;;3.84;46.64;152350.41;5046379;28;20850;-75
2022/03/11 07:32:33;;;;;;;13.03;6.50;;;;;;;3.76;46.88;152328.53;5049413;28;20454;-76
2022/03/11 07:35:12;;;;;;;13.17;7.60;;;;;;;3.60;45.93;152288.66;5033459;28;20781;-75
2022/03/11 07:37:50;;;;;;;11.67;7.63;;;;;;;3.64;46.33;152300.22;5055895;28;20462;-76
2022/03/11 07:40:25;;;;;;;10.70;7.27;;;;;;;3.79;46.59;152336.22;5050629;28;20474;-75
2022/03/11 07:43:02;;;;;;;9.63;6.90;;;;;;;3.57;46.60;152282.16;5049751;28;20474;-76
2022/03/11 07:45:37;;;;;;;8.47;6.90;;;;;;;3.93;46.95;152372.28;5060178;28;20450;-76
2022/03/11 07:48:14;;;;;;;13.50;7.67;;;;;;;4.40;46.71;152493.34;5047434;28;20474;-75
2022/03/11 07:50:49;;;;;;;12.37;8.10;;;;;;;4.58;44.99;152538.47;5048082;28;20442;-75
2022/03/11 07:53:26;;;;;;;13.03;8.30;;;;;;;4.82;45.35;152600.28;5063865;28;20504;-75
2022/03/11 07:56:03;;;;;;;11.80;8.00;;;;;;;4.69;45.24;152568.06;5042480;28;20447;-76
2022/03/11 07:58:41;;;;;;;11.10;8.40;;;;;;;4.58;45.10;152538.47;5045182;28;20542;-75
2022/03/11 08:01:18;;;;;;;12.20;8.73;;;;;;;4.38;46.26;152488.22;5047648;28;20543;-75
2022/03/11 08:03:54;;;;;;;12.67;8.30;;;;;;;5.03;46.20;152653.16;5026913;28;20443;-76
2022/03/11 08:06:30;;;;;;;10.63;7.73;;;;;;;5.36;45.63;152738.22;5060825;28;20537;-76
2022/03/11 08:09:07;;;;;;;10.80;7.20;;;;;;;5.71;44.35;152827.19;5049718;28;20470;-75
2022/03/11 08:11:42;;;;;;;11.83;8.33;;;;;;;5.88;44.85;152872.34;5062232;28;20854;-75
2022/03/11 08:14:17;;;;;;;12.27;8.60;;;;;;;5.92;43.64;152882.69;5049303;28;20463;-75
2022/03/11 08:16:53;;;;;;;10.53;8.10;;;;;;;6.22;43.22;152957.53;5046632;28;20923;-75
2022/03/11 08:19:29;;;;;;;13.77;9.17;;;;;;;6.17;43.19;152944.63;5032176;28;20458;-75
2022/03/11 08:22:05;;;;;;;12.40;9.93;;;;;;;6.29;44.19;152975.56;5062646;28;20941;-75
2022/03/11 08:24:42;;;;;;;10.67;9.17;;;;;;;6.39;43.32;153001.38;5047492;28;20442;-75
2022/03/11 08:27:18;;;;;;;14.23;10.33;;;;;;;6.57;42.90;153047.81;5047668;28;20454;-76
2022/03/11 08:29:53;;;;;;;9.60;8.30;;;;;;;6.74;42.94;153093.03;5047327;28;20463;-75
2022/03/11 08:32:29;;;;;;;12.87;9.43;;;;;;;6.99;42.12;153156.25;5048015;28;20456;-76
2022/03/11 08:35:06;;;;;;;16.20;10.10;;;;;;;7.01;42.41;153160.13;5046884;28;20450;-76
2022/03/11 08:37:45;;;;;;;10.03;9.07;;;;;;;7.03;41.16;153165.28;5046023;28;21029;-76
2022/03/11 08:40:24;;;;;;;12.07;8.73;;;;;;;6.44;42.40;153014.28;5062934;28;20451;-75
2022/03/11 08:42:59;;;;;;;10.23;7.97;;;;;;;6.59;42.48;153054.28;5033732;28;20853;-75
2022/03/11 08:45:38;;;;;;;12.00;9.17;;;;;;;6.01;42.93;152905.88;5049533;28;20800;-75
2022/03/11 08:48:15;;;;;;;10.57;8.50;;;;;;;5.89;43.65;152874.97;5047462;28;20463;-75
2022/03/11 08:50:50;;;;;;;9.80;7.40;;;;;;;6.12;43.65;152934.28;5046285;28;20536;-75
2022/03/11 08:53:26;;;;;;;12.60;7.83;;;;;;;6.48;43.20;153024.63;5039782;28;20553;-75
2022/03/11 08:56:03;;;;;;;13.17;9.30;;;;;;;6.80;42.46;153105.91;5031654;28;20449;-75
2022/03/11 08:58:38;;;;;;;11.30;8.60;;;;;;;6.41;42.81;153006.53;5030271;28;20498;-75
2022/03/11 09:01:14;;;;;;;11.80;8.37;;;;;;;6.35;43.53;152991.06;5047251;28;20454;-75
2022/03/11 09:03:50;;;;;;;13.40;8.67;;;;;;;6.19;43.38;152949.78;5046582;28;20450;-75
2022/03/11 09:06:25;;;;;;;11.77;8.37;;;;;;;6.09;43.87;152926.53;5030625;28;20443;-75
2022/03/11 09:09:01;;;;;;;12.80;8.93;;;;;;;5.89;43.59;152874.97;5044485;28;20474;-75
2022/03/11 09:11:38;;;;;;;11.33;7.73;;;;;;;5.47;45.11;152766.59;5043632;28;20435;-74
2022/03/11 09:14:14;;;;;;;11.57;8.73;;;;;;;5.45;45.84;152761.44;5028659;28;20447;-75
2022/03/11 09:16:50;;;;;;;12.77;7.83;;;;;;;5.84;46.05;152862.00;5042947;28;20496;-75
2022/03/11 09:19:25;;;;;;;13.97;9.33;;;;;;;5.97;44.01;152895.59;5030997;28;20789;-76
2022/03/11 09:22:01;;;;;;;11.50;7.93;;;;;;;5.91;44.15;152878.81;5032963;28;20470;-75
2022/03/11 09:24:37;;;;;;;9.77;8.47;;;;;;;6.00;43.32;152903.34;5057890;28;20438;-75
2022/03/11 09:27:16;;;;;;;12.33;8.70;;;;;;;5.92;44.39;152882.69;5032068;28;20442;-75
2022/03/11 09:29:52;;;;;;;9.83;8.27;;;;;;;6.48;43.10;153024.63;5044459;28;20466;-75
2022/03/11 09:32:28;;;;;;;13.13;8.70;;;;;;;6.31;42.78;152980.72;5024726;28;20454;-75
2022/03/11 09:35:04;;;;;;;16.33;9.17;;;;;;;6.33;42.96;152987.16;5047565;28;20474;-75
2022/03/11 09:37:41;;;;;;;11.47;8.30;;;;;;;6.64;43.19;153065.91;5028601;28;20454;-75
2022/03/11 09:40:16;;;;;;;16.60;9.30;;;;;;;6.99;42.96;153155.00;5043347;28;20443;-75
2022/03/11 09:42:53;;;;;;;9.37;7.70;;;;;;;6.89;42.10;153130.44;5045337;28;20969;-75
2022/03/11 09:45:29;;;;;;;13.17;9.10;;;;;;;6.77;42.39;153098.19;5023976;28;21004;-75
2022/03/11 09:48:06;;;;;;;11.30;7.50;;;;;;;6.43;42.45;153011.72;5039702;28;20439;-75
2022/03/11 09:50:42;;;;;;;14.30;8.23;;;;;;;6.88;42.98;153127.88;5042645;28;20439;-75
2022/03/11 09:53:18;;;;;;;10.70;8.50;;;;;;;6.95;42.86;153145.94;5058149;28;20451;-75
2022/03/11 09:55:53;;;;;;;10.73;7.47;;;;;;;6.99;42.24;153156.25;5032943;28;20540;-75
2022/03/11 09:58:30;;;;;;;12.60;8.57;;;;;;;7.00;42.60;153158.84;5030821;28;20545;-75
2022/03/11 10:01:06;;;;;;;11.87;8.43;;;;;;;7.08;41.83;153178.19;5047605;28;20435;-75
2022/03/11 10:03:42;;;;;;;9.13;8.13;;;;;;;7.22;42.69;153215.66;5027620;28;20458;-75
2022/03/11 10:06:37;;;;;;;8.97;7.80;;;;;;;7.30;41.82;153236.34;5030621;28;20458;-75
2022/03/11 10:09:31;;;;;;;12.60;9.00;;;;;;;7.28;41.56;153229.88;5060744;28;20498;-74
2022/03/11 10:12:07;;;;;;;13.40;8.67;;;;;;;7.24;42.10;153220.81;5062817;28;20542;-75
2022/03/11 10:14:44;;;;;;;10.47;8.57;;;;;;;7.26;42.00;153225.97;5030682;28;20450;-75
2022/03/11 10:17:21;;;;;;;12.90;9.07;;;;;;;7.20;42.30;153209.22;5043041;28;20937;-75
2022/03/11 10:20:01;;;;;;;10.80;7.53;;;;;;;7.06;42.13;153173.03;5046474;28;20483;-75
2022/03/11 10:22:36;;;;;;;10.87;8.33;;;;;;;7.21;42.50;153213.06;5048736;28;21376;-75
2022/03/11 10:25:16;;;;;;;15.03;9.63;;;;;;;7.29;41.55;153233.72;5037207;28;20884;-75
2022/03/11 10:28:00;;;;;;;10.20;7.27;;;;;;;7.40;42.36;153259.53;5045085;28;21169;-75
2022/03/11 10:30:38;;;;;;;11.20;9.13;;;;;;;7.34;42.26;153245.34;5044506;28;20439;-75
2022/03/11 10:33:16;;;;;;;9.93;8.23;;;;;;;7.16;42.85;153200.16;5062843;28;20906;-76
2022/03/11 10:35:52;;;;;;;12.97;8.60;;;;;;;7.24;42.45;153219.53;5058108;28;20442;-75
2022/03/11 10:38:28;;;;;;;12.40;9.67;;;;;;;7.49;43.02;153284.13;5040928;28;20450;-75
2022/03/11 10:41:05;;;;;;;12.87;9.67;;;;;;;7.54;41.98;153295.72;5060412;28;20487;-75
2022/03/11 10:43:40;;;;;;;12.03;9.70;;;;;;;7.57;42.77;153304.72;5057876;28;20913;-75
2022/03/11 10:46:17;;;;;;;12.43;9.43;;;;;;;7.53;42.12;153294.44;5060932;28;20441;-75
2022/03/11 10:48:53;;;;;;;11.70;8.93;;;;;;;7.61;42.12;153315.09;5044826;28;20474;-75
2022/03/11 10:51:30;;;;;;;11.63;8.70;;;;;;;7.66;42.81;153326.72;5042815;28;20454;-75
2022/03/11 10:54:08;;;;;;;10.47;8.20;;;;;;;7.87;42.13;153380.97;5032007;28;20480;-75
2022/03/11 10:56:47;;;;;;;15.87;10.40;;;;;;;8.01;41.42;153417.16;5041661;28;20446;-75
2022/03/11 10:59:27;;;;;;;11.47;8.90;;;;;;;8.10;41.48;153440.38;5026765;28;20501;-75
2022/03/11 11:02:04;;;;;;;10.80;9.00;;;;;;;8.01;41.97;153415.84;5065473;28;20443;-75
2022/03/11 11:04:42;;;;;;;13.17;8.80;;;;;;;7.98;41.50;153410.69;5034047;28;20450;-75
2022/03/11 11:07:17;;;;;;;12.40;9.57;;;;;;;8.01;42.19;153417.16;5046347;28;20458;-75
2022/03/11 11:09:53;;;;;;;12.50;9.10;;;;;;;8.17;41.85;153458.50;5048442;28;20462;-74
2022/03/11 11:12:29;;;;;;;10.63;9.33;;;;;;;8.27;41.18;153484.41;5062277;28;20486;-75
2022/03/11 11:15:05;;;;;;;13.10;9.90;;;;;;;8.19;41.70;153463.66;5030819;28;20949;-75
2022/03/11 11:17:44;;;;;;;14.03;9.50;;;;;;;8.24;41.49;153475.28;5049529;28;20775;-75
2022/03/11 11:20:21;;;;;;;13.43;9.83;;;;;;;8.44;42.17;153528.34;5047041;28;20438;-75
2022/03/11 11:22:56;;;;;;;12.47;9.00;;;;;;;8.58;41.42;153563.22;5061619;28;20476;-74
2022/03/11 11:25:33;;;;;;;12.03;10.07;;;;;;;8.44;41.44;153528.34;5048182;28;21115;-75
2022/03/11 11:28:12;;;;;;;11.93;9.23;;;;;;;8.84;40.52;153630.44;5048527;28;20473;-75
2022/03/11 11:30:48;;;;;;;14.67;8.90;;;;;;;9.04;40.19;153680.88;5046258;28;20545;-75
2022/03/11 11:33:25;;;;;;;13.53;10.10;;;;;;;9.06;40.30;153686.06;5065749;28;20819;-75
2022/03/11 11:36:02;;;;;;;14.30;9.43;;;;;;;9.05;40.54;153683.50;5048775;28;20427;-76
2022/03/11 11:38:39;;;;;;;17.30;10.87;;;;;;;9.30;39.84;153748.13;5030813;28;20516;-75
2022/03/11 11:41:25;;;;;;;14.73;10.13;;;;;;;9.45;39.35;153786.94;5049037;28;20491;-75
2022/03/11 11:44:02;;;;;;;11.27;9.40;;;;;;;9.27;40.06;153740.38;5050566;28;20477;-75
2022/03/11 11:46:38;;;;;;;14.77;9.57;;;;;;;9.30;39.99;153748.13;5059229;28;20456;-75
2022/03/11 11:49:22;;;;;;;12.17;9.87;;;;;;;9.52;39.76;153805.06;5046011;28;20513;-75
2022/03/11 11:51:59;;;;;;;14.00;9.70;;;;;;;9.59;39.55;153823.16;5045566;28;20510;-75
2022/03/11 11:54:43;;;;;;;12.53;9.80;;;;;;;9.49;40.04;153797.31;5063324;28;20447;-75
2022/03/11 11:57:20;;;;;;;13.03;9.07;;;;;;;9.62;39.77;153829.63;5057225;28;20765;-74
2022/03/11 11:59:58;;;;;;;14.63;9.33;;;;;;;9.65;39.67;153838.72;5047159;28;20845;-75
2022/03/11 12:02:37;;;;;;;12.20;10.30;;;;;;;9.60;39.73;153825.78;5055322;28;20459;-75
2022/03/11 12:05:41;;;;;;;12.63;8.80;;;;;;;9.58;40.15;153820.56;5043783;28;20550;-75